sensor_id;sensor_type;location;lat;lon;timestamp;pressure;altitude;pressure_sealevel;temperature;humidity
43838;BME280;65998;46.256;7.534;2023-06-04T00:01:35;87053.22;;;19.27;54.09
43838;BME280;65998;46.256;7.534;2023-06-04T00:04:01;87047.75;;;19.25;54.19
43838;BME280;65998;46.256;7.534;2023-06-04T00:06:27;87049.09;;;19.26;54.21
43838;BME280;65998;46.256;7.534;2023-06-04T00:08:52;87048.41;;;19.26;54.06
43838;BME280;65998;46.256;7.534;2023-06-04T00:11:18;87040.81;;;19.24;54.13
43838;BME280;65998;46.256;7.534;2023-06-04T00:13:44;87046.38;;;19.24;54.11
43838;BME280;65998;46.256;7.534;2023-06-04T00:16:10;87033.13;;;19.25;54.07
43838;BME280;65998;46.256;7.534;2023-06-04T00:18:36;87041.56;;;19.23;54.06
43838;BME280;65998;46.256;7.534;2023-06-04T00:21:01;87035.31;;;19.22;54.14
43838;BME280;65998;46.256;7.534;2023-06-04T00:23:27;87029.75;;;19.22;54.07
43838;BME280;65998;46.256;7.534;2023-06-04T00:25:53;87026.28;;;19.22;54.08
43838;BME280;65998;46.256;7.534;2023-06-04T00:28:19;87020.72;;;19.22;54.14
43838;BME280;65998;46.256;7.534;2023-06-04T00:30:45;87017.94;;;19.22;54.11
43838;BME280;65998;46.256;7.534;2023-06-04T00:33:11;87015.81;;;19.22;54.15
43838;BME280;65998;46.256;7.534;2023-06-04T00:35:37;87017.25;;;19.21;54.12
43838;BME280;65998;46.256;7.534;2023-06-04T00:38:03;87015.91;;;19.20;54.02
43838;BME280;65998;46.256;7.534;2023-06-04T00:40:28;87018.69;;;19.20;53.99
43838;BME280;65998;46.256;7.534;2023-06-04T00:42:54;87021.47;;;19.20;54.06
43838;BME280;65998;46.256;7.534;2023-06-04T00:45:20;87018.03;;;19.20;54.00
43838;BME280;65998;46.256;7.534;2023-06-04T00:47:46;87013.88;;;19.19;54.09
43838;BME280;65998;46.256;7.534;2023-06-04T00:50:13;87017.34;;;19.19;54.17
43838;BME280;65998;46.256;7.534;2023-06-04T00:52:40;87022.25;;;19.19;54.04
43838;BME280;65998;46.256;7.534;2023-06-04T00:55:06;87009.75;;;19.18;54.14
43838;BME280;65998;46.256;7.534;2023-06-04T00:57:32;87015.31;;;19.18;54.11
43838;BME280;65998;46.256;7.534;2023-06-04T00:59:58;87019.53;;;19.17;54.11
43838;BME280;65998;46.256;7.534;2023-06-04T01:02:26;87018.09;;;19.18;54.05
43838;BME280;65998;46.256;7.534;2023-06-04T01:05:11;87016.00;;;19.18;54.07
43838;BME280;65998;46.256;7.534;2023-06-04T01:07:40;87011.19;;;19.17;54.11
43838;BME280;65998;46.256;7.534;2023-06-04T01:10:07;87004.94;;;19.16;54.04
43838;BME280;65998;46.256;7.534;2023-06-04T01:12:33;87007.03;;;19.16;54.08
43838;BME280;65998;46.256;7.534;2023-06-04T01:14:58;87006.38;;;19.15;53.98
43838;BME280;65998;46.256;7.534;2023-06-04T01:17:43;87005.59;;;19.17;54.02
43838;BME280;65998;46.256;7.534;2023-06-04T01:20:18;87010.50;;;19.16;54.08
43838;BME280;65998;46.256;7.534;2023-06-04T01:28:01;87007.13;;;19.13;54.01
43838;BME280;65998;46.256;7.534;2023-06-04T01:30:32;87008.56;;;19.12;54.20
43838;BME280;65998;46.256;7.534;2023-06-04T01:33:01;87011.34;;;19.12;54.20
43838;BME280;65998;46.256;7.534;2023-06-04T01:35:27;87004.41;;;19.11;53.94
43838;BME280;65998;46.256;7.534;2023-06-04T01:37:54;87009.31;;;19.11;54.01
43838;BME280;65998;46.256;7.534;2023-06-04T01:40:20;87012.78;;;19.11;54.22
43838;BME280;65998;46.256;7.534;2023-06-04T01:42:46;87005.19;;;19.10;54.08
43838;BME280;65998;46.256;7.534;2023-06-04T01:45:12;87016.31;;;19.10;54.02
43838;BME280;65998;46.256;7.534;2023-06-04T01:47:38;87009.41;;;19.09;54.11
43838;BME280;65998;46.256;7.534;2023-06-04T01:50:06;87007.97;;;19.10;53.96
43838;BME280;65998;46.256;7.534;2023-06-04T01:52:32;87005.25;;;19.08;54.21
43838;BME280;65998;46.256;7.534;2023-06-04T01:54:57;87010.81;;;19.08;54.10
43838;BME280;65998;46.256;7.534;2023-06-04T01:57:23;87008.03;;;19.08;54.04
43838;BME280;65998;46.256;7.534;2023-06-04T01:59:49;87012.94;;;19.07;54.10
43838;BME280;65998;46.256;7.534;2023-06-04T02:02:15;87003.91;;;19.07;54.05
43838;BME280;65998;46.256;7.534;2023-06-04T02:04:41;87007.38;;;19.07;54.26
43838;BME280;65998;46.256;7.534;2023-06-04T02:07:08;87010.16;;;19.07;54.16
43838;BME280;65998;46.256;7.534;2023-06-04T02:09:34;87006.00;;;19.06;54.16
43838;BME280;65998;46.256;7.534;2023-06-04T02:12:00;87010.91;;;19.06;53.95
43838;BME280;65998;46.256;7.534;2023-06-04T02:14:26;87008.13;;;19.06;54.08
43838;BME280;65998;46.256;7.534;2023-06-04T02:16:52;87008.81;;;19.06;54.17
43838;BME280;65998;46.256;7.534;2023-06-04T02:19:18;87006.78;;;19.05;54.10
43838;BME280;65998;46.256;7.534;2023-06-04T02:21:44;87006.78;;;19.05;54.19
43838;BME280;65998;46.256;7.534;2023-06-04T02:24:10;86999.84;;;19.04;54.07
43838;BME280;65998;46.256;7.534;2023-06-04T02:26:36;87002.63;;;19.04;54.01
43838;BME280;65998;46.256;7.534;2023-06-04T02:29:01;86998.50;;;19.03;54.17
43838;BME280;65998;46.256;7.534;2023-06-04T02:31:27;87005.41;;;19.04;53.96
43838;BME280;65998;46.256;7.534;2023-06-04T02:33:53;87007.53;;;19.03;54.18
43838;BME280;65998;46.256;7.534;2023-06-04T02:36:19;87004.06;;;19.03;54.05
43838;BME280;65998;46.256;7.534;2023-06-04T02:38:44;87008.28;;;19.02;54.06
43838;BME280;65998;46.256;7.534;2023-06-04T02:41:10;87012.50;;;19.01;54.06
43838;BME280;65998;46.256;7.534;2023-06-04T02:43:36;87008.97;;;19.02;54.20
43838;BME280;65998;46.256;7.534;2023-06-04T02:46:02;87004.81;;;19.01;54.10
43838;BME280;65998;46.256;7.534;2023-06-04T02:48:28;87012.50;;;19.01;54.07
43838;BME280;65998;46.256;7.534;2023-06-04T02:50:54;87017.41;;;19.00;54.06
43838;BME280;65998;46.256;7.534;2023-06-04T02:53:19;87016.72;;;19.00;54.06
43838;BME280;65998;46.256;7.534;2023-06-04T02:55:45;87011.91;;;18.98;54.09
43838;BME280;65998;46.256;7.534;2023-06-04T02:58:11;87021.63;;;18.99;53.99
43838;BME280;65998;46.256;7.534;2023-06-04T03:00:37;87016.03;;;18.99;54.11
43838;BME280;65998;46.256;7.534;2023-06-04T03:03:03;87018.84;;;18.99;54.04
43838;BME280;65998;46.256;7.534;2023-06-04T03:05:29;87017.47;;;18.98;54.09
43838;BME280;65998;46.256;7.534;2023-06-04T03:07:55;87015.38;;;18.99;53.95
43838;BME280;65998;46.256;7.534;2023-06-04T03:10:21;87020.19;;;19.00;54.10
43838;BME280;65998;46.256;7.534;2023-06-04T03:12:46;87017.47;;;18.98;53.96
43838;BME280;65998;46.256;7.534;2023-06-04T03:15:12;87011.22;;;18.98;54.08
43838;BME280;65998;46.256;7.534;2023-06-04T03:17:38;87019.59;;;18.98;53.93
43838;BME280;65998;46.256;7.534;2023-06-04T03:20:04;87018.16;;;18.99;54.01
43838;BME280;65998;46.256;7.534;2023-06-04T03:22:30;87012.66;;;18.97;54.04
43838;BME280;65998;46.256;7.534;2023-06-04T03:24:56;87021.69;;;18.97;54.09
43838;BME280;65998;46.256;7.534;2023-06-04T03:27:22;87015.44;;;18.97;54.01
43838;BME280;65998;46.256;7.534;2023-06-04T03:29:48;87021.78;;;18.95;53.95
43838;BME280;65998;46.256;7.534;2023-06-04T03:32:14;87019.00;;;18.95;54.02
43838;BME280;65998;46.256;7.534;2023-06-04T03:34:40;87029.44;;;18.95;53.99
43838;BME280;65998;46.256;7.534;2023-06-04T03:37:05;87022.44;;;18.96;53.96
43838;BME280;65998;46.256;7.534;2023-06-04T03:39:31;87031.56;;;18.94;53.90
43838;BME280;65998;46.256;7.534;2023-06-04T03:41:57;87026.00;;;18.94;53.82
43838;BME280;65998;46.256;7.534;2023-06-04T03:44:23;87024.56;;;18.95;53.86
43838;BME280;65998;46.256;7.534;2023-06-04T03:46:48;87028.03;;;18.96;53.91
43838;BME280;65998;46.256;7.534;2023-06-04T03:49:14;87034.34;;;18.94;53.85
43838;BME280;65998;46.256;7.534;2023-06-04T03:51:41;87029.44;;;18.95;53.91
43838;BME280;65998;46.256;7.534;2023-06-04T03:54:07;87037.13;;;18.94;53.85
43838;BME280;65998;46.256;7.534;2023-06-04T03:56:33;87040.66;;;18.93;53.97
43838;BME280;65998;46.256;7.534;2023-06-04T03:58:59;87035.09;;;18.93;53.91
43838;BME280;65998;46.256;7.534;2023-06-04T04:01:25;87038.56;;;18.93;53.81
43838;BME280;65998;46.256;7.534;2023-06-04T04:03:51;87032.31;;;18.93;53.97
43838;BME280;65998;46.256;7.534;2023-06-04T04:06:18;87033.06;;;18.91;53.91
43838;BME280;65998;46.256;7.534;2023-06-04T04:08:44;87036.53;;;18.92;53.87
43838;BME280;65998;46.256;7.534;2023-06-04T04:11:14;87039.31;;;18.92;53.79
43838;BME280;65998;46.256;7.534;2023-06-04T04:13:41;87037.97;;;18.91;54.01
43838;BME280;65998;46.256;7.534;2023-06-04T04:16:06;87037.28;;;18.90;53.88
43838;BME280;65998;46.256;7.534;2023-06-04T04:18:34;87034.50;;;18.90;53.72
43838;BME280;65998;46.256;7.534;2023-06-04T04:21:00;87031.03;;;18.90;53.72
43838;BME280;65998;46.256;7.534;2023-06-04T04:23:26;87027.59;;;18.89;53.79
43838;BME280;65998;46.256;7.534;2023-06-04T04:25:52;87026.91;;;18.89;53.88
43838;BME280;65998;46.256;7.534;2023-06-04T04:28:19;87028.25;;;18.90;53.75
43838;BME280;65998;46.256;7.534;2023-06-04T04:30:46;87029.69;;;18.89;53.76
43838;BME280;65998;46.256;7.534;2023-06-04T04:33:12;87025.56;;;18.88;53.79
43838;BME280;65998;46.256;7.534;2023-06-04T04:35:38;87029.78;;;18.87;53.78
43838;BME280;65998;46.256;7.534;2023-06-04T04:38:04;87024.19;;;18.87;53.77
43838;BME280;65998;46.256;7.534;2023-06-04T04:40:30;87031.13;;;18.88;53.84
43838;BME280;65998;46.256;7.534;2023-06-04T04:42:57;87031.88;;;18.86;53.82
43838;BME280;65998;46.256;7.534;2023-06-04T04:45:23;87035.34;;;18.87;53.79
43838;BME280;65998;46.256;7.534;2023-06-04T04:47:49;87041.66;;;18.85;53.88
43838;BME280;65998;46.256;7.534;2023-06-04T04:50:15;87041.66;;;18.85;53.76
43838;BME280;65998;46.256;7.534;2023-06-04T04:52:41;87040.97;;;18.85;53.63
43838;BME280;65998;46.256;7.534;2023-06-04T04:55:07;87041.66;;;18.85;53.75
43838;BME280;65998;46.256;7.534;2023-06-04T04:57:33;87040.97;;;18.85;53.84
43838;BME280;65998;46.256;7.534;2023-06-04T04:59:59;87039.63;;;18.84;53.76
43838;BME280;65998;46.256;7.534;2023-06-04T05:02:25;87043.09;;;18.84;53.62
43838;BME280;65998;46.256;7.534;2023-06-04T05:04:50;87033.38;;;18.83;53.73
43838;BME280;65998;46.256;7.534;2023-06-04T05:07:16;87038.97;;;18.83;53.78
43838;BME280;65998;46.256;7.534;2023-06-04T05:09:42;87035.50;;;18.83;53.75
43838;BME280;65998;46.256;7.534;2023-06-04T05:12:08;87044.53;;;18.83;53.62
43838;BME280;65998;46.256;7.534;2023-06-04T05:14:34;87044.53;;;18.83;53.75
43838;BME280;65998;46.256;7.534;2023-06-04T05:16:59;87042.50;;;18.81;53.64
43838;BME280;65998;46.256;7.534;2023-06-04T05:19:25;87043.16;;;18.82;53.46
43838;BME280;65998;46.256;7.534;2023-06-04T05:21:51;87043.16;;;18.82;53.64
43838;BME280;65998;46.256;7.534;2023-06-04T05:24:17;87045.28;;;18.81;53.60
43838;BME280;65998;46.256;7.534;2023-06-04T05:26:43;87043.94;;;18.80;53.60
43838;BME280;65998;46.256;7.534;2023-06-04T05:29:08;87048.06;;;18.81;53.45
43838;BME280;65998;46.256;7.534;2023-06-04T05:31:34;87049.50;;;18.80;53.64
43838;BME280;65998;46.256;7.534;2023-06-04T05:34:00;87055.06;;;18.80;53.64
43838;BME280;65998;46.256;7.534;2023-06-04T05:36:27;87048.75;;;18.82;53.56
43838;BME280;65998;46.256;7.534;2023-06-04T05:38:53;87060.63;;;18.80;53.57
43838;BME280;65998;46.256;7.534;2023-06-04T05:41:19;87062.75;;;18.80;53.69
43838;BME280;65998;46.256;7.534;2023-06-04T05:43:44;87063.41;;;18.80;53.66
43838;BME280;65998;46.256;7.534;2023-06-04T05:46:10;87054.38;;;18.80;53.78
43838;BME280;65998;46.256;7.534;2023-06-04T05:48:36;87059.28;;;18.79;53.53
43838;BME280;65998;46.256;7.534;2023-06-04T05:51:02;87054.38;;;18.80;53.62
43838;BME280;65998;46.256;7.534;2023-06-04T05:53:28;87055.06;;;18.80;53.52
43838;BME280;65998;46.256;7.534;2023-06-04T05:55:54;87059.28;;;18.79;53.66
43838;BME280;65998;46.256;7.534;2023-06-04T05:58:19;87058.59;;;18.79;53.63
43838;BME280;65998;46.256;7.534;2023-06-04T06:00:45;87054.38;;;18.80;53.44
43838;BME280;65998;46.256;7.534;2023-06-04T06:03:11;87055.75;;;18.81;53.45
43838;BME280;65998;46.256;7.534;2023-06-04T06:05:37;87059.28;;;18.79;53.57
43838;BME280;65998;46.256;7.534;2023-06-04T06:08:03;87059.94;;;18.80;53.51
43838;BME280;65998;46.256;7.534;2023-06-04T06:10:29;87054.38;;;18.80;53.46
43838;BME280;65998;46.256;7.534;2023-06-04T06:12:54;87050.25;;;18.79;53.48
43838;BME280;65998;46.256;7.534;2023-06-04T06:15:20;87057.16;;;18.80;53.48
43838;BME280;65998;46.256;7.534;2023-06-04T06:17:46;87055.81;;;18.79;53.48
43838;BME280;65998;46.256;7.534;2023-06-04T06:20:12;87062.06;;;18.79;53.46
43838;BME280;65998;46.256;7.534;2023-06-04T06:22:37;87055.81;;;18.79;53.46
43838;BME280;65998;46.256;7.534;2023-06-04T06:25:04;87055.81;;;18.79;53.66
43838;BME280;65998;46.256;7.534;2023-06-04T06:27:29;87055.13;;;18.78;53.50
43838;BME280;65998;46.256;7.534;2023-06-04T06:29:55;87058.59;;;18.79;53.39
43838;BME280;65998;46.256;7.534;2023-06-04T06:32:21;87058.59;;;18.79;53.46
43838;BME280;65998;46.256;7.534;2023-06-04T06:34:47;87060.72;;;18.78;53.63
43838;BME280;65998;46.256;7.534;2023-06-04T06:37:13;87056.50;;;18.79;53.44
43838;BME280;65998;46.256;7.534;2023-06-04T06:39:38;87059.28;;;18.79;53.45
43838;BME280;65998;46.256;7.534;2023-06-04T06:42:04;87055.81;;;18.79;53.40
43838;BME280;65998;46.256;7.534;2023-06-04T06:44:30;87047.47;;;18.79;53.46
43838;BME280;65998;46.256;7.534;2023-06-04T06:46:56;87051.69;;;18.78;53.48
43838;BME280;65998;46.256;7.534;2023-06-04T06:49:22;87050.25;;;18.79;53.42
43838;BME280;65998;46.256;7.534;2023-06-04T06:51:48;87049.56;;;18.78;53.41
43838;BME280;65998;46.256;7.534;2023-06-04T06:54:15;87051.59;;;18.80;53.46
43838;BME280;65998;46.256;7.534;2023-06-04T06:56:41;87048.81;;;18.80;53.36
43838;BME280;65998;46.256;7.534;2023-06-04T06:59:07;87048.81;;;18.80;53.34
43838;BME280;65998;46.256;7.534;2023-06-04T07:01:32;87055.75;;;18.81;53.31
43838;BME280;65998;46.256;7.534;2023-06-04T07:03:58;87050.84;;;18.81;53.30
43838;BME280;65998;46.256;7.534;2023-06-04T07:06:24;87052.88;;;18.83;53.24
43838;BME280;65998;46.256;7.534;2023-06-04T07:08:51;87059.13;;;18.84;53.10
43838;BME280;65998;46.256;7.534;2023-06-04T07:11:17;87065.38;;;18.84;53.15
43838;BME280;65998;46.256;7.534;2023-06-04T07:13:43;87066.72;;;18.85;53.04
43838;BME280;65998;46.256;7.534;2023-06-04T07:16:08;87067.41;;;18.86;53.13
43838;BME280;65998;46.256;7.534;2023-06-04T07:18:34;87067.41;;;18.86;53.06
43838;BME280;65998;46.256;7.534;2023-06-04T07:21:00;87062.50;;;18.86;53.14
43838;BME280;65998;46.256;7.534;2023-06-04T07:23:26;87066.63;;;18.87;52.97
43838;BME280;65998;46.256;7.534;2023-06-04T07:25:51;87061.06;;;18.87;53.01
43838;BME280;65998;46.256;7.534;2023-06-04T07:28:17;87063.84;;;18.87;52.99
43838;BME280;65998;46.256;7.534;2023-06-04T07:30:45;87060.31;;;18.89;52.98
43838;BME280;65998;46.256;7.534;2023-06-04T07:33:11;87054.06;;;18.88;52.96
43838;BME280;65998;46.256;7.534;2023-06-04T07:35:37;87054.06;;;18.88;52.91
43838;BME280;65998;46.256;7.534;2023-06-04T07:38:03;87054.00;;;18.90;52.87
43838;BME280;65998;46.256;7.534;2023-06-04T07:40:28;87051.22;;;18.90;52.84
43838;BME280;65998;46.256;7.534;2023-06-04T07:42:55;87053.25;;;18.92;52.60
43838;BME280;65998;46.256;7.534;2023-06-04T07:45:20;87047.66;;;18.92;52.91
43838;BME280;65998;46.256;7.534;2023-06-04T07:47:46;87053.91;;;18.92;52.81
43838;BME280;65998;46.256;7.534;2023-06-04T07:50:12;87051.81;;;18.93;52.71
43838;BME280;65998;46.256;7.534;2023-06-04T07:52:38;87054.59;;;18.93;52.81
43838;BME280;65998;46.256;7.534;2023-06-04T07:55:04;87044.88;;;18.92;52.72
43838;BME280;65998;46.256;7.534;2023-06-04T07:57:31;87044.88;;;18.92;52.84
43838;BME280;65998;46.256;7.534;2023-06-04T07:59:56;87045.56;;;18.92;52.73
43838;BME280;65998;46.256;7.534;2023-06-04T08:02:22;87050.38;;;18.94;52.66
43838;BME280;65998;46.256;7.534;2023-06-04T08:04:48;87050.38;;;18.94;52.74
43838;BME280;65998;46.256;7.534;2023-06-04T08:07:14;87048.94;;;18.95;52.68
43838;BME280;65998;46.256;7.534;2023-06-04T08:09:40;87049.63;;;18.95;52.74
43838;BME280;65998;46.256;7.534;2023-06-04T08:12:06;87044.06;;;18.95;52.66
43838;BME280;65998;46.256;7.534;2023-06-04T08:14:32;87044.72;;;18.96;52.51
43838;BME280;65998;46.256;7.534;2023-06-04T08:16:58;87042.63;;;18.96;52.71
43838;BME280;65998;46.256;7.534;2023-06-04T08:19:24;87041.19;;;18.97;52.54
43838;BME280;65998;46.256;7.534;2023-06-04T08:21:50;87039.16;;;18.96;52.63
43838;BME280;65998;46.256;7.534;2023-06-04T08:24:16;87041.28;;;18.95;52.57
43838;BME280;65998;46.256;7.534;2023-06-04T08:26:42;87028.78;;;18.94;52.53
43838;BME280;65998;46.256;7.534;2023-06-04T08:29:08;87034.34;;;18.94;52.59
43838;BME280;65998;46.256;7.534;2023-06-04T08:31:34;87033.66;;;18.94;52.61
43838;BME280;65998;46.256;7.534;2023-06-04T08:34:00;87029.53;;;18.93;52.66
43838;BME280;65998;46.256;7.534;2023-06-04T08:36:27;87028.09;;;18.94;52.51
43838;BME280;65998;46.256;7.534;2023-06-04T08:38:52;87027.50;;;18.91;52.58
43838;BME280;65998;46.256;7.534;2023-06-04T08:41:29;87028.84;;;18.92;52.41
43838;BME280;65998;46.256;7.534;2023-06-04T08:43:59;87026.81;;;18.91;52.43
43838;BME280;65998;46.256;7.534;2023-06-04T08:46:25;87024.78;;;18.89;52.47
43838;BME280;65998;46.256;7.534;2023-06-04T08:48:52;87038.72;;;18.89;52.40
43838;BME280;65998;46.256;7.534;2023-06-04T08:51:19;87032.47;;;18.89;52.55
43838;BME280;65998;46.256;7.534;2023-06-04T08:53:45;87038.03;;;18.89;52.46
43838;BME280;65998;46.256;7.534;2023-06-04T08:56:11;87040.16;;;18.88;52.54
43838;BME280;65998;46.256;7.534;2023-06-04T08:58:40;87033.16;;;18.89;52.48
43838;BME280;65998;46.256;7.534;2023-06-04T09:01:07;87035.25;;;18.89;52.46
43838;BME280;65998;46.256;7.534;2023-06-04T09:03:33;87028.34;;;18.88;52.44
43838;BME280;65998;46.256;7.534;2023-06-04T09:06:02;87033.22;;;18.87;52.40
43838;BME280;65998;46.256;7.534;2023-06-04T09:08:31;87030.44;;;18.87;52.46
43838;BME280;65998;46.256;7.534;2023-06-04T09:11:01;87029.78;;;18.87;52.41
43838;BME280;65998;46.256;7.534;2023-06-04T09:13:31;87033.91;;;18.88;52.40
43838;BME280;65998;46.256;7.534;2023-06-04T09:16:01;87026.31;;;18.86;52.52
43838;BME280;65998;46.256;7.534;2023-06-04T09:18:27;87026.31;;;18.86;52.53
43838;BME280;65998;46.256;7.534;2023-06-04T09:21:07;87018.63;;;18.87;52.44
43838;BME280;65998;46.256;7.534;2023-06-04T09:23:48;87024.19;;;18.87;52.35
43838;BME280;65998;46.256;7.534;2023-06-04T09:26:14;87024.28;;;18.85;52.50
43838;BME280;65998;46.256;7.534;2023-06-04T09:28:41;87024.97;;;18.85;52.59
43838;BME280;65998;46.256;7.534;2023-06-04T09:31:15;87019.38;;;18.85;52.35
43838;BME280;65998;46.256;7.534;2023-06-04T09:33:44;87020.06;;;18.86;52.46
43838;BME280;65998;46.256;7.534;2023-06-04T09:36:10;87009.69;;;18.84;52.45
43838;BME280;65998;46.256;7.534;2023-06-04T09:38:37;87014.56;;;18.84;52.47
43838;BME280;65998;46.256;7.534;2023-06-04T09:41:03;87009.00;;;18.84;52.46
43838;BME280;65998;46.256;7.534;2023-06-04T09:43:29;87003.44;;;18.84;52.41
43838;BME280;65998;46.256;7.534;2023-06-04T09:45:55;87008.34;;;18.83;52.53
43838;BME280;65998;46.256;7.534;2023-06-04T09:48:21;87002.75;;;18.83;52.38
43838;BME280;65998;46.256;7.534;2023-06-04T09:50:47;87006.91;;;18.84;52.52
43838;BME280;65998;46.256;7.534;2023-06-04T09:53:20;87000.66;;;18.84;52.48
43838;BME280;65998;46.256;7.534;2023-06-04T09:55:57;87009.69;;;18.84;52.40
43838;BME280;65998;46.256;7.534;2023-06-04T09:58:25;87006.91;;;18.84;52.49
43838;BME280;65998;46.256;7.534;2023-06-04T10:00:54;87013.81;;;18.85;52.44
43838;BME280;65998;46.256;7.534;2023-06-04T10:03:23;87013.16;;;18.85;52.47
43838;BME280;65998;46.256;7.534;2023-06-04T10:05:52;87006.91;;;18.84;52.59
43838;BME280;65998;46.256;7.534;2023-06-04T10:08:22;87009.69;;;18.84;52.50
43838;BME280;65998;46.256;7.534;2023-06-04T10:10:49;87010.34;;;18.85;52.56
43838;BME280;65998;46.256;7.534;2023-06-04T10:13:19;86999.22;;;18.85;52.51
43838;BME280;65998;46.256;7.534;2023-06-04T10:15:46;86999.97;;;18.83;52.57
43838;BME280;65998;46.256;7.534;2023-06-04T10:18:13;87008.34;;;18.83;52.61
43838;BME280;65998;46.256;7.534;2023-06-04T10:20:41;87009.00;;;18.84;52.66
43838;BME280;65998;46.256;7.534;2023-06-04T10:23:07;86999.97;;;18.83;52.57
43838;BME280;65998;46.256;7.534;2023-06-04T10:25:37;86999.97;;;18.83;52.62
43838;BME280;65998;46.256;7.534;2023-06-04T10:28:03;87004.19;;;18.82;52.62
43838;BME280;65998;46.256;7.534;2023-06-04T10:30:30;86998.63;;;18.82;52.69
43838;BME280;65998;46.256;7.534;2023-06-04T10:32:57;86997.94;;;18.81;52.70
43838;BME280;65998;46.256;7.534;2023-06-04T10:35:34;87002.75;;;18.83;52.71
43838;BME280;65998;46.256;7.534;2023-06-04T10:38:10;86996.53;;;18.83;52.78
43838;BME280;65998;46.256;7.534;2023-06-04T10:40:37;86991.72;;;18.81;52.69
43838;BME280;65998;46.256;7.534;2023-06-04T10:43:11;86996.53;;;18.83;52.78
43838;BME280;65998;46.256;7.534;2023-06-04T10:45:38;86995.16;;;18.81;52.84
43838;BME280;65998;46.256;7.534;2023-06-04T10:48:06;86993.72;;;18.83;52.83
43838;BME280;65998;46.256;7.534;2023-06-04T10:50:33;86991.72;;;18.81;52.82
43838;BME280;65998;46.256;7.534;2023-06-04T10:53:00;86988.94;;;18.81;52.88
43838;BME280;65998;46.256;7.534;2023-06-04T10:55:26;86979.91;;;18.80;52.89
43838;BME280;65998;46.256;7.534;2023-06-04T10:57:56;86984.72;;;18.82;52.84
43838;BME280;65998;46.256;7.534;2023-06-04T11:00:34;86988.84;;;18.83;52.85
43838;BME280;65998;46.256;7.534;2023-06-04T11:03:01;86986.13;;;18.81;52.92
43838;BME280;65998;46.256;7.534;2023-06-04T11:05:38;86988.16;;;18.83;52.92
43838;BME280;65998;46.256;7.534;2023-06-04T11:08:05;86985.38;;;18.83;52.79
43838;BME280;65998;46.256;7.534;2023-06-04T11:10:33;86984.72;;;18.82;52.82
43838;BME280;65998;46.256;7.534;2023-06-04T11:12:59;86984.03;;;18.81;52.89
43838;BME280;65998;46.256;7.534;2023-06-04T11:15:26;86981.25;;;18.81;52.87
43838;BME280;65998;46.256;7.534;2023-06-04T11:17:55;86990.94;;;18.83;52.96
43838;BME280;65998;46.256;7.534;2023-06-04T11:20:22;86986.81;;;18.81;53.07
43838;BME280;65998;46.256;7.534;2023-06-04T11:22:55;86985.38;;;18.83;52.93
43838;BME280;65998;46.256;7.534;2023-06-04T11:25:23;86981.25;;;18.81;52.95
43838;BME280;65998;46.256;7.534;2023-06-04T11:27:51;86988.16;;;18.83;53.00
43838;BME280;65998;46.256;7.534;2023-06-04T11:30:18;86986.13;;;18.81;52.96
43838;BME280;65998;46.256;7.534;2023-06-04T11:32:43;86987.50;;;18.82;53.15
43838;BME280;65998;46.256;7.534;2023-06-04T11:35:10;86984.72;;;18.82;53.16
43838;BME280;65998;46.256;7.534;2023-06-04T11:37:36;86979.13;;;18.82;53.04
43838;BME280;65998;46.256;7.534;2023-06-04T11:40:03;86984.72;;;18.82;53.10
43838;BME280;65998;46.256;7.534;2023-06-04T11:42:31;86984.72;;;18.82;53.10
43838;BME280;65998;46.256;7.534;2023-06-04T11:44:57;86976.34;;;18.82;53.08
43838;BME280;65998;46.256;7.534;2023-06-04T11:47:24;86988.84;;;18.83;53.10
43838;BME280;65998;46.256;7.534;2023-06-04T11:49:56;86981.16;;;18.84;53.23
43838;BME280;65998;46.256;7.534;2023-06-04T11:52:22;86982.59;;;18.83;53.31
43838;BME280;65998;46.256;7.534;2023-06-04T11:54:49;86979.13;;;18.82;53.14
43838;BME280;65998;46.256;7.534;2023-06-04T11:57:16;86974.25;;;18.83;53.27
43838;BME280;65998;46.256;7.534;2023-06-04T11:59:42;86977.03;;;18.83;53.22
43838;BME280;65998;46.256;7.534;2023-06-04T12:02:08;86980.50;;;18.83;53.28
43838;BME280;65998;46.256;7.534;2023-06-04T12:04:34;86971.47;;;18.83;53.14
43838;BME280;65998;46.256;7.534;2023-06-04T12:07:01;86968.69;;;18.83;53.25
43838;BME280;65998;46.256;7.534;2023-06-04T12:09:31;86972.81;;;18.84;53.39
43838;BME280;65998;46.256;7.534;2023-06-04T12:12:04;86966.56;;;18.83;53.24
43838;BME280;65998;46.256;7.534;2023-06-04T12:14:31;86968.00;;;18.82;53.21
43838;BME280;65998;46.256;7.534;2023-06-04T12:16:59;86969.34;;;18.83;53.37
43838;BME280;65998;46.256;7.534;2023-06-04T12:19:26;86969.34;;;18.83;53.35
43838;BME280;65998;46.256;7.534;2023-06-04T12:22:06;86967.94;;;18.84;53.31
43838;BME280;65998;46.256;7.534;2023-06-04T12:24:34;86969.34;;;18.83;53.31
43838;BME280;65998;46.256;7.534;2023-06-04T12:27:09;86968.69;;;18.83;53.41
43838;BME280;65998;46.256;7.534;2023-06-04T12:29:35;86968.00;;;18.82;53.30
43838;BME280;65998;46.256;7.534;2023-06-04T12:32:05;86964.47;;;18.84;53.35
43838;BME280;65998;46.256;7.534;2023-06-04T12:34:32;86966.56;;;18.83;53.48
43838;BME280;65998;46.256;7.534;2023-06-04T12:36:57;86970.03;;;18.84;53.43
43838;BME280;65998;46.256;7.534;2023-06-04T12:39:23;86961.00;;;18.83;53.41
43838;BME280;65998;46.256;7.534;2023-06-04T12:41:49;86958.22;;;18.83;53.49
43838;BME280;65998;46.256;7.534;2023-06-04T12:44:15;86966.56;;;18.83;53.56
43838;BME280;65998;46.256;7.534;2023-06-04T12:46:41;86961.69;;;18.84;53.52
43838;BME280;65998;46.256;7.534;2023-06-04T12:49:07;86955.44;;;18.83;53.54
43838;BME280;65998;46.256;7.534;2023-06-04T12:51:32;86961.69;;;18.84;53.51
43838;BME280;65998;46.256;7.534;2023-06-04T12:53:58;86955.44;;;18.83;53.50
43838;BME280;65998;46.256;7.534;2023-06-04T12:56:25;86957.47;;;18.85;53.51
43838;BME280;65998;46.256;7.534;2023-06-04T12:58:52;86956.78;;;18.84;53.62
43838;BME280;65998;46.256;7.534;2023-06-04T13:01:17;86957.47;;;18.85;53.72
43838;BME280;65998;46.256;7.534;2023-06-04T13:03:43;86953.31;;;18.84;53.64